Time;durP1;ratioP1;P1;durP2;ratioP2;P2;SDS_P1;SDS_P2;PMS_P1;PMS_P2;Temp;Humidity;BMP_temperature;BMP_pressure;BME280_temperature;BME280_humidity;BME280_pressure;Samples;Min_cycle;Max_cycle;Signal;HPM_P1;HPM_P2
2022/09/26 00:00:33;;;;;;;4.20;3.40;;;;;;;23.13;37.53;94878.69;4982921;28;20097;-63
2022/09/26 00:02:59;;;;;;;4.95;3.58;;;;;;;23.07;37.87;94888.91;4964872;28;20503;-65
2022/09/26 00:05:25;;;;;;;4.28;3.35;;;;;;;22.85;37.65;94841.34;4962362;28;20429;-63
2022/09/26 00:07:51;;;;;;;4.93;3.50;;;;;;;23.24;37.79;94900.38;4963553;28;20046;-63
2022/09/26 00:10:16;;;;;;;4.43;3.42;;;;;;;23.20;37.45;94886.31;4973077;28;20055;-62
2022/09/26 00:12:42;;;;;;;3.72;3.20;;;;;;;22.96;37.46;94853.63;4962649;28;20507;-63
2022/09/26 00:15:08;;;;;;;4.47;3.80;;;;;;;22.60;37.43;94794.31;4971535;28;20034;-63
2022/09/26 00:17:34;;;;;;;4.90;3.60;;;;;;;22.86;37.41;94831.94;4975688;28;20530;-63
2022/09/26 00:19:59;;;;;;;4.53;3.38;;;;;;;23.15;37.54;94870.78;4964739;28;20858;-63
2022/09/26 00:22:25;;;;;;;4.82;3.60;;;;;;;23.16;37.80;94877.69;4959923;28;20784;-64
2022/09/26 00:24:51;;;;;;;5.28;3.50;;;;;;;23.08;37.51;94871.34;4967960;28;20088;-64
2022/09/26 00:27:16;;;;;;;4.80;3.67;;;;;;;23.15;37.77;94881.69;4972166;28;20098;-64
2022/09/26 00:29:42;;;;;;;5.15;3.35;;;;;;;23.13;37.99;94867.81;4972744;28;20034;-63
2022/09/26 00:32:07;;;;;;;4.60;3.40;;;;;;;22.74;37.93;94814.22;4955166;28;20039;-63
2022/09/26 00:34:33;;;;;;;4.25;3.40;;;;;;;23.14;37.73;94874.75;4972623;28;20031;-63
2022/09/26 00:36:58;;;;;;;4.57;3.70;;;;;;;22.90;37.84;94828.41;4975072;28;20526;-64
2022/09/26 00:39:24;;;;;;;4.18;3.40;;;;;;;22.74;37.58;94798.63;4975556;28;20502;-64
2022/09/26 00:41:49;;;;;;;4.97;3.70;;;;;;;23.08;37.85;94863.16;4970374;28;20569;-64
2022/09/26 00:44:32;;;;;;;4.72;3.92;;;;;;;23.11;38.08;94859.41;4967631;28;20055;-63
2022/09/26 00:46:57;;;;;;;5.50;3.80;;;;;;;22.78;38.05;94803.78;4962292;28;20086;-63
2022/09/26 00:49:31;;;;;;;4.25;3.67;;;;;;;22.73;37.91;94807.28;4963537;28;20046;-64
2022/09/26 00:52:00;;;;;;;4.07;3.30;;;;;;;23.07;38.24;94847.34;4963243;28;20026;-63
2022/09/26 00:54:26;;;;;;;5.45;4.35;;;;;;;23.09;38.13;94856.47;4950155;28;20031;-63
2022/09/26 00:56:52;;;;;;;4.93;3.90;;;;;;;23.08;38.00;94855.00;4935591;28;20587;-63
2022/09/26 00:59:24;;;;;;;4.40;3.58;;;;;;;22.97;38.15;94844.22;4978545;28;20069;-63
2022/09/26 01:01:50;;;;;;;4.47;3.53;;;;;;;22.73;38.04;94796.41;4970236;28;20124;-64
2022/09/26 01:04:16;;;;;;;4.45;3.78;;;;;;;23.08;37.85;94855.00;4964731;28;20491;-62
2022/09/26 01:06:41;;;;;;;4.78;3.60;;;;;;;22.01;37.75;94711.94;4965895;28;20477;-63
2022/09/26 01:09:11;;;;;;;3.85;3.40;;;;;;;23.07;38.29;94863.66;4963928;28;20117;-63
2022/09/26 01:11:37;;;;;;;4.97;3.42;;;;;;;22.58;37.93;94779.72;4946515;28;20026;-62
2022/09/26 01:14:04;;;;;;;4.47;3.90;;;;;;;23.06;38.25;94857.50;4946529;28;20094;-63
2022/09/26 01:16:30;;;;;;;6.18;3.75;;;;;;;23.04;38.57;94859.97;4948271;28;20113;-62
2022/09/26 01:18:56;;;;;;;4.50;3.55;;;;;;;23.04;37.99;94854.53;4965777;28;20052;-62
2022/09/26 01:22:01;;;;;;;5.03;3.67;;;;;;;23.04;38.11;94857.25;4969215;28;20057;-63
2022/09/26 01:24:44;;;;;;;5.07;3.92;;;;;;;23.06;38.36;94854.78;4983813;28;20054;-66
2022/09/26 01:27:40;;;;;;;4.32;3.30;;;;;;;23.02;38.49;94835.25;5002074;28;20050;-63
2022/09/26 01:30:12;;;;;;;5.05;3.78;;;;;;;23.04;38.16;94853.78;4989232;28;20085;-63
2022/09/26 01:33:11;;;;;;;5.45;3.70;;;;;;;23.03;38.71;94850.34;4984334;28;20088;-63
2022/09/26 01:35:55;;;;;;;4.50;3.72;;;;;;;23.01;38.36;94833.03;4983234;28;20125;-63
2022/09/26 01:38:35;;;;;;;4.32;3.40;;;;;;;23.01;38.24;94850.09;4982671;28;20124;-63
2022/09/26 01:41:23;;;;;;;6.10;3.75;;;;;;;22.76;38.08;94814.44;4972724;28;20042;-63
2022/09/26 01:44:22;;;;;;;4.47;3.72;;;;;;;22.99;38.24;94858.06;4955835;28;20174;-63
2022/09/26 01:46:54;;;;;;;4.93;3.60;;;;;;;22.57;38.30;94773.56;4970137;28;20161;-63
2022/09/26 01:49:24;;;;;;;4.93;3.78;;;;;;;22.97;38.19;94844.22;4962070;28;20039;-62
2022/09/26 01:52:04;;;;;;;4.80;3.67;;;;;;;22.99;38.58;94836.25;4938896;28;20424;-63
2022/09/26 01:54:36;;;;;;;4.65;3.70;;;;;;;22.97;38.57;94830.59;4966289;28;20510;-62
2022/09/26 01:57:03;;;;;;;4.43;3.55;;;;;;;22.76;38.51;94811.72;4952115;28;20068;-62
2022/09/26 01:59:31;;;;;;;4.68;3.70;;;;;;;22.85;38.35;94814.84;4950852;28;20570;-64
2022/09/26 02:02:01;;;;;;;4.50;3.50;;;;;;;22.55;38.51;94759.69;4929906;28;20054;-63
2022/09/26 02:04:31;;;;;;;4.75;3.78;;;;;;;22.88;38.60;94824.72;4945947;28;20195;-63
2022/09/26 02:06:58;;;;;;;;;;;;;;;23.00;38.34;94824.13;4956497;28;20022;-62
2022/09/26 02:09:32;;;;;;;4.78;3.70;;;;;;;22.98;38.51;94815.72;4962423;28;19929;-65
2022/09/26 02:11:59;;;;;;;4.93;3.85;;;;;;;22.97;38.52;94822.44;4942359;28;20031;-64
2022/09/26 02:14:28;;;;;;;4.53;3.65;;;;;;;22.99;38.72;94839.00;4949365;28;20058;-64
2022/09/26 02:17:25;;;;;;;4.82;3.80;;;;;;;22.84;38.55;94813.38;4946085;28;20431;-63
2022/09/26 02:19:58;;;;;;;4.78;3.60;;;;;;;22.97;38.75;94838.78;4961885;28;20152;-64
2022/09/26 02:22:32;;;;;;;4.55;3.67;;;;;;;22.99;38.37;94822.66;4960422;28;20546;-62
2022/09/26 02:24:58;;;;;;;4.15;3.55;;;;;;;22.60;38.55;94769.06;4980305;28;20036;-64
2022/09/26 02:27:24;;;;;;;5.00;3.75;;;;;;;22.94;38.41;94812.56;4980861;28;20081;-64
2022/09/26 02:29:49;;;;;;;5.47;3.92;;;;;;;22.79;38.54;94778.03;4995466;28;20737;-63
2022/09/26 02:32:16;;;;;;;5.03;3.97;;;;;;;22.62;38.73;94742.09;4980908;28;20439;-64
2022/09/26 02:34:43;;;;;;;4.18;3.60;;;;;;;22.91;38.83;94786.31;4980705;28;20038;-64
2022/09/26 02:37:09;;;;;;;5.00;3.53;;;;;;;22.95;38.72;94796.94;4977174;28;20066;-64
2022/09/26 02:39:35;;;;;;;5.18;3.55;;;;;;;22.97;38.74;94789.00;4984626;28;20060;-66
2022/09/26 02:42:23;;;;;;;4.57;3.70;;;;;;;22.96;38.74;94796.44;4999059;28;20053;-65
2022/09/26 02:45:16;;;;;;;4.75;3.47;;;;;;;22.94;38.65;94790.78;4970877;28;20046;-64
2022/09/26 02:48:11;;;;;;;5.47;3.95;;;;;;;22.95;38.57;94792.22;4992008;28;20046;-63
2022/09/26 02:50:46;;;;;;;6.43;3.65;;;;;;;22.95;38.81;94791.50;4983881;28;20121;-64
2022/09/26 02:53:48;;;;;;;4.50;3.42;;;;;;;22.94;38.94;94788.06;4987532;28;20073;-65
2022/09/26 02:56:24;;;;;;;4.60;3.42;;;;;;;22.73;38.89;94764.47;4998083;28;20133;-63
2022/09/26 02:58:58;;;;;;;4.63;3.45;;;;;;;22.93;38.98;94804.88;4980081;28;20519;-63
2022/09/26 03:01:38;;;;;;;5.03;3.90;;;;;;;22.83;38.67;94759.44;4998664;28;20030;-64
2022/09/26 03:04:07;;;;;;;3.60;3.22;;;;;;;21.97;38.94;94629.94;4967987;28;20101;-63
2022/09/26 03:06:37;;;;;;;4.90;3.70;;;;;;;22.93;38.88;94778.41;4961106;28;20101;-64
2022/09/26 03:09:03;;;;;;;4.78;3.42;;;;;;;22.54;38.84;94722.88;4979965;28;20089;-64
2022/09/26 03:11:28;;;;;;;4.90;3.42;;;;;;;22.91;38.65;94764.53;5000551;28;20108;-64
2022/09/26 03:13:57;;;;;;;4.55;3.63;;;;;;;22.95;39.03;94769.72;4979267;28;20040;-64
2022/09/26 03:16:23;;;;;;;4.20;3.65;;;;;;;22.64;38.86;94745.03;4992660;28;20379;-63
2022/09/26 03:18:52;;;;;;;4.60;3.70;;;;;;;22.82;39.07;94766.13;4996292;28;20041;-64
2022/09/26 03:21:17;;;;;;;4.22;3.42;;;;;;;22.57;38.81;94726.53;4981001;28;20419;-64
2022/09/26 03:23:43;;;;;;;5.38;3.60;;;;;;;22.81;39.13;94770.84;4983144;28;20487;-65
2022/09/26 03:26:10;;;;;;;4.20;3.50;;;;;;;22.75;38.60;94755.78;4983479;28;20079;-64
2022/09/26 03:28:40;;;;;;;6.10;3.92;;;;;;;22.53;38.94;94707.06;4998305;28;20069;-65
2022/09/26 03:31:06;;;;;;;5.07;3.50;;;;;;;22.69;39.01;94736.06;4986818;28;20026;-64
2022/09/26 03:33:31;;;;;;;4.68;3.40;;;;;;;22.89;38.93;94756.13;4953897;28;20026;-65
2022/09/26 03:35:58;;;;;;;5.72;3.92;;;;;;;22.86;38.85;94750.25;4999017;28;20096;-64
2022/09/26 03:38:24;;;;;;;4.93;3.58;;;;;;;22.76;39.23;94732.78;4999615;28;20140;-64
2022/09/26 03:40:51;;;;;;;4.43;3.20;;;;;;;22.70;39.10;94715.75;4988991;28;20909;-63
2022/09/26 03:43:16;;;;;;;4.47;3.20;;;;;;;22.90;38.94;94738.53;4967518;28;20126;-62
2022/09/26 03:45:42;;;;;;;3.92;3.33;;;;;;;22.67;38.99;94708.63;4968732;28;20439;-61
2022/09/26 03:48:08;;;;;;;4.38;3.30;;;;;;;22.70;38.97;94715.75;4978596;28;20475;-62
2022/09/26 03:50:33;;;;;;;4.85;3.42;;;;;;;22.72;39.32;94751.38;4972800;28;20050;-62
2022/09/26 03:53:00;;;;;;;4.10;3.40;;;;;;;22.79;39.08;94748.09;4975626;28;20409;-63
2022/09/26 03:55:25;;;;;;;4.47;3.35;;;;;;;22.49;39.29;94706.59;4956999;28;20426;-62
2022/09/26 03:57:51;;;;;;;5.00;3.50;;;;;;;22.88;39.09;94755.91;4995581;28;20042;-62
2022/09/26 04:00:16;;;;;;;4.50;3.50;;;;;;;22.62;38.98;94714.88;4992785;28;20022;-63
2022/09/26 04:02:42;;;;;;;4.18;3.10;;;;;;;22.46;39.25;94685.84;4981978;28;20430;-63
2022/09/26 04:05:08;;;;;;;4.47;3.78;;;;;;;22.90;39.52;94749.44;4976830;28;20351;-65
2022/09/26 04:07:34;;;;;;;3.70;3.30;;;;;;;22.82;39.34;94738.91;4981206;28;20526;-63
2022/09/26 04:09:59;;;;;;;4.57;3.70;;;;;;;22.89;39.00;94750.69;4998112;28;20030;-65
2022/09/26 04:12:24;;;;;;;4.47;3.58;;;;;;;22.53;39.05;94696.16;5000010;28;20034;-62
2022/09/26 04:14:51;;;;;;;5.03;3.55;;;;;;;22.90;39.26;94751.44;4998722;28;20046;-63
2022/09/26 04:17:17;;;;;;;4.35;3.53;;;;;;;22.90;39.44;94757.59;4999524;28;20065;-63
2022/09/26 04:19:43;;;;;;;4.55;3.63;;;;;;;22.79;39.04;94739.91;4979582;28;20042;-63
2022/09/26 04:22:08;;;;;;;4.15;3.40;;;;;;;22.90;39.21;94757.59;5002856;28;20036;-63
2022/09/26 04:24:34;;;;;;;5.13;3.38;;;;;;;22.56;39.36;94712.19;4986287;28;20499;-63
2022/09/26 04:26:59;;;;;;;5.10;3.40;;;;;;;22.71;39.18;94728.13;4991301;28;20050;-64
2022/09/26 04:29:26;;;;;;;4.13;3.30;;;;;;;22.81;39.34;94737.41;4996312;28;20478;-62
2022/09/26 04:31:52;;;;;;;4.88;3.22;;;;;;;22.50;39.62;94692.47;5000341;28;20115;-63
2022/09/26 04:34:17;;;;;;;3.63;3.20;;;;;;;22.35;39.96;94702.28;4998490;28;20499;-64
2022/09/26 04:36:42;;;;;;;4.97;3.60;;;;;;;22.88;39.39;94754.66;4982070;28;20550;-64
2022/09/26 04:39:08;;;;;;;4.68;3.50;;;;;;;22.70;39.46;94710.31;4998695;28;20080;-64
2022/09/26 04:41:34;;;;;;;4.25;3.50;;;;;;;23.11;39.63;94750.47;5000464;28;20072;-65
2022/09/26 04:44:00;;;;;;;3.78;3.15;;;;;;;22.99;39.14;94721.16;4999548;28;20033;-65
2022/09/26 04:46:27;;;;;;;5.93;3.53;;;;;;;23.35;39.17;94758.59;4982019;28;20546;-65
2022/09/26 04:48:54;;;;;;;6.35;3.50;;;;;;;23.28;38.87;94742.81;5002325;28;20025;-63
2022/09/26 04:51:20;;;;;;;4.45;3.33;;;;;;;23.32;38.92;94732.38;4998797;28;20017;-62
2022/09/26 04:53:46;;;;;;;4.95;3.00;;;;;;;22.95;39.09;94672.41;4998676;28;20038;-64
2022/09/26 04:56:12;;;;;;;4.68;3.30;;;;;;;23.49;38.74;94735.59;4989670;28;20053;-63
2022/09/26 04:58:40;;;;;;;5.78;3.63;;;;;;;23.67;38.64;94751.97;4981333;28;20147;-63
2022/09/26 05:01:16;;;;;;;6.57;3.50;;;;;;;23.73;38.35;94746.44;4984244;28;20045;-62
2022/09/26 05:03:42;;;;;;;5.18;3.40;;;;;;;23.49;38.39;94719.25;4999563;28;20033;-61
2022/09/26 05:06:08;;;;;;;7.20;3.50;;;;;;;23.86;38.49;94747.97;4979526;28;20046;-62
2022/09/26 05:08:35;;;;;;;6.93;3.75;;;;;;;23.94;38.44;94748.81;4981713;28;20117;-62
2022/09/26 05:11:01;;;;;;;8.90;3.95;;;;;;;23.88;38.01;94729.13;4981372;28;20048;-62
2022/09/26 05:13:27;;;;;;;9.20;4.07;;;;;;;23.94;38.29;94729.72;4979963;28;20050;-64
2022/09/26 05:15:54;;;;;;;11.20;3.67;;;;;;;23.65;37.94;94666.53;4973831;28;20030;-64
2022/09/26 05:18:20;;;;;;;7.22;3.63;;;;;;;23.99;37.98;94690.00;4972169;28;20038;-63
2022/09/26 05:20:47;;;;;;;5.68;3.45;;;;;;;24.42;37.60;94721.28;4969335;28;20535;-64
2022/09/26 05:23:12;;;;;;;7.38;3.70;;;;;;;24.40;38.39;94723.81;4986089;28;20072;-63
2022/09/26 05:28:24;;;;;;;5.05;3.22;;;;;;;24.62;38.53;94726.13;4969391;28;20049;-65
2022/09/26 05:30:50;;;;;;;7.38;3.63;;;;;;;24.17;39.77;94689.19;4976375;28;20034;-63
2022/09/26 05:33:20;;;;;;;9.85;3.53;;;;;;;25.01;39.84;94738.56;4981522;28;20150;-66
2022/09/26 05:35:54;;;;;;;8.88;3.95;;;;;;;24.40;39.75;94647.38;4999991;28;20066;-66
2022/09/26 05:38:19;;;;;;;6.22;4.07;;;;;;;24.55;41.89;94702.19;4971604;28;20045;-67
2022/09/26 05:40:57;;;;;;;7.97;4.32;;;;;;;25.03;41.38;94719.66;4981394;28;20047;-67
2022/09/26 05:43:27;;;;;;;6.97;4.68;;;;;;;25.12;39.90;94693.91;4982514;28;20273;-66
2022/09/26 05:45:57;;;;;;;6.35;4.75;;;;;;;25.10;39.21;94697.16;4967248;28;20033;-66
2022/09/26 05:48:23;;;;;;;5.82;4.15;;;;;;;25.24;38.83;94723.19;4975236;28;20043;-63
2022/09/26 05:50:50;;;;;;;6.53;4.10;;;;;;;25.38;38.60;94721.91;4981669;28;20046;-64
2022/09/26 05:53:15;;;;;;;7.40;4.32;;;;;;;25.40;38.68;94727.59;4982765;28;20042;-63
2022/09/26 05:55:41;;;;;;;7.70;4.60;;;;;;;25.10;38.82;94671.84;4981061;28;20057;-65
2022/09/26 05:58:06;;;;;;;7.15;4.43;;;;;;;24.75;38.48;94616.91;4980545;28;20416;-65
2022/09/26 06:00:33;;;;;;;10.25;4.93;;;;;;;25.27;38.31;94697.53;4981362;28;20052;-64
2022/09/26 06:03:01;;;;;;;7.13;4.18;;;;;;;25.21;38.09;94702.38;4967946;28;20513;-64
2022/09/26 06:05:27;;;;;;;6.85;4.20;;;;;;;25.31;37.57;94679.53;4983015;28;20038;-66
2022/09/26 06:07:52;;;;;;;8.02;4.53;;;;;;;25.36;37.77;94686.16;4970487;28;20453;-67
2022/09/26 06:10:19;;;;;;;7.20;4.53;;;;;;;25.66;37.29;94735.75;4972715;28;20073;-66
2022/09/26 06:12:44;;;;;;;8.27;4.40;;;;;;;25.27;37.65;94678.41;4947492;28;20033;-63
2022/09/26 06:15:10;;;;;;;10.05;4.45;;;;;;;25.61;37.75;94717.44;4963256;28;20046;-64
2022/09/26 06:17:35;;;;;;;7.28;4.13;;;;;;;25.52;37.23;94693.28;4978687;28;20074;-66
2022/09/26 06:20:02;;;;;;;10.27;4.40;;;;;;;25.68;37.27;94727.72;4981898;28;20491;-65
2022/09/26 06:22:27;;;;;;;11.85;4.55;;;;;;;25.53;36.76;94681.81;4976668;28;20038;-65
2022/09/26 06:24:53;;;;;;;5.38;3.95;;;;;;;25.94;36.64;94734.59;4982286;28;20100;-66
2022/09/26 06:27:19;;;;;;;7.75;4.18;;;;;;;25.64;36.28;94694.50;4982105;28;20022;-64
2022/09/26 06:29:45;;;;;;;7.75;3.92;;;;;;;25.87;36.82;94746.19;4982164;28;20606;-64
2022/09/26 06:32:18;;;;;;;6.30;4.22;;;;;;;25.85;36.70;94748.72;4987178;28;20136;-61
2022/09/26 06:34:53;;;;;;;8.35;4.20;;;;;;;25.37;37.05;94693.09;4985452;28;20061;-61
2022/09/26 06:37:18;;;;;;;6.35;4.15;;;;;;;25.54;37.32;94750.91;4975372;28;20491;-61
2022/09/26 06:39:44;;;;;;;6.53;4.07;;;;;;;25.41;37.25;94731.78;4977441;28;20122;-62
2022/09/26 06:42:09;;;;;;;9.35;4.70;;;;;;;25.25;37.66;94718.47;4973336;28;20038;-63
2022/09/26 06:44:35;;;;;;;7.65;4.63;;;;;;;25.16;37.39;94716.91;4981566;28;20041;-61
2022/09/26 06:47:01;;;;;;;8.07;4.60;;;;;;;25.08;38.07;94721.56;4979075;28;20440;-61
2022/09/26 06:49:28;;;;;;;6.93;4.50;;;;;;;24.80;37.97;94689.78;4976027;28;20049;-61
2022/09/26 06:51:53;;;;;;;10.23;4.38;;;;;;;24.88;38.22;94724.88;4964839;28;20106;-61
2022/09/26 06:54:19;;;;;;;8.85;4.45;;;;;;;24.90;38.36;94727.09;4959233;28;20522;-65
2022/09/26 06:56:44;;;;;;;7.97;4.47;;;;;;;24.67;38.59;94692.53;4941429;28;20117;-63
2022/09/26 06:59:10;;;;;;;9.80;4.80;;;;;;;24.67;38.79;94726.03;4945864;28;20038;-62
2022/09/26 07:01:35;;;;;;;10.80;4.80;;;;;;;24.71;39.25;94733.91;4944846;28;20049;-60
2022/09/26 07:04:02;;;;;;;11.07;4.65;;;;;;;24.75;38.95;94726.16;4945845;28;20120;-61
2022/09/26 07:06:27;;;;;;;8.40;4.40;;;;;;;24.46;38.82;94699.88;4948289;28;20035;-61
2022/09/26 07:08:55;;;;;;;6.53;4.43;;;;;;;24.64;38.82;94726.34;4961629;28;21477;-62
2022/09/26 07:11:21;;;;;;;7.65;4.43;;;;;;;24.48;39.16;94708.28;4961675;28;20353;-64
2022/09/26 07:13:47;;;;;;;7.75;4.40;;;;;;;24.59;38.71;94735.41;4949684;28;20520;-63
2022/09/26 07:16:12;;;;;;;8.10;4.32;;;;;;;24.58;39.06;94744.84;4935807;28;20358;-64
2022/09/26 07:18:38;;;;;;;7.88;4.57;;;;;;;24.12;38.84;94688.03;4936404;28;20201;-62
2022/09/26 07:21:07;;;;;;;8.95;4.95;;;;;;;24.50;38.71;94744.72;4947565;28;20046;-65
2022/09/26 07:23:33;;;;;;;7.32;4.35;;;;;;;24.28;39.10;94700.66;4950979;28;20570;-62
2022/09/26 07:25:58;;;;;;;7.63;4.55;;;;;;;24.47;39.03;94739.56;4948103;28;20053;-63
2022/09/26 07:28:25;;;;;;;8.95;4.50;;;;;;;24.45;39.21;94736.63;4934567;28;20047;-62
2022/09/26 07:30:54;;;;;;;7.10;4.15;;;;;;;24.39;38.90;94738.69;4934655;28;20038;-61
2022/09/26 07:33:19;;;;;;;6.57;4.43;;;;;;;24.40;38.85;94740.19;4929407;28;20151;-62
2022/09/26 07:35:49;;;;;;;5.60;4.00;;;;;;;24.07;39.28;94707.97;4947023;28;20617;-63
2022/09/26 07:38:15;;;;;;;7.70;4.35;;;;;;;24.28;39.56;94744.31;4929026;28;20567;-63
2022/09/26 07:40:43;;;;;;;7.90;4.38;;;;;;;24.19;39.05;94735.81;4932645;28;20042;-64
2022/09/26 07:43:12;;;;;;;7.43;4.22;;;;;;;24.27;39.52;94737.38;4943954;28;20084;-64
2022/09/26 07:51:10;;;;;;;5.97;4.20;;;;;;;23.73;39.42;94668.09;4944487;28;20059;-65
2022/09/26 07:53:37;;;;;;;7.53;4.80;;;;;;;23.73;39.21;94642.84;4928463;28;20049;-64
2022/09/26 07:56:06;;;;;;;8.38;4.25;;;;;;;24.18;39.26;94718.69;4943399;28;20050;-64
2022/09/26 07:58:41;;;;;;;7.75;4.55;;;;;;;24.11;39.27;94708.41;4942879;28;20285;-65
2022/09/26 08:01:11;;;;;;;5.60;3.83;;;;;;;24.12;39.15;94707.13;4944490;28;20061;-64
2022/09/26 08:03:38;;;;;;;5.57;4.00;;;;;;;24.14;39.07;94707.38;4945394;28;20046;-64
2022/09/26 08:06:03;;;;;;;5.15;4.18;;;;;;;24.17;39.05;94700.88;4945392;28;20054;-63
2022/09/26 08:08:29;;;;;;;5.57;3.95;;;;;;;24.04;39.43;94695.38;4927482;28;20053;-64
2022/09/26 08:10:56;;;;;;;7.00;4.45;;;;;;;23.71;39.19;94629.00;4942997;28;20074;-65
2022/09/26 08:13:23;;;;;;;5.00;3.95;;;;;;;24.09;39.10;94683.63;4941685;28;20168;-64
2022/09/26 08:15:49;;;;;;;5.47;4.13;;;;;;;23.94;39.46;94655.38;4923222;28;20105;-64
2022/09/26 08:18:15;;;;;;;5.63;3.88;;;;;;;24.05;39.67;94683.22;4927592;28;21274;-65
2022/09/26 08:20:42;;;;;;;6.63;3.78;;;;;;;23.84;39.66;94657.03;4922151;28;20082;-64
2022/09/26 08:23:08;;;;;;;6.05;4.18;;;;;;;23.72;39.01;94646.81;4939580;28;20049;-65
2022/09/26 08:25:33;;;;;;;6.82;4.07;;;;;;;23.71;39.46;94620.81;4939585;28;20078;-64
2022/09/26 08:27:59;;;;;;;5.65;4.30;;;;;;;24.00;39.57;94661.47;4938598;28;20121;-64
2022/09/26 08:30:30;;;;;;;6.00;4.28;;;;;;;24.06;39.48;94659.38;4941705;28;20479;-64
2022/09/26 08:33:00;;;;;;;8.48;4.30;;;;;;;24.03;39.63;94658.41;4944033;28;20046;-65
2022/09/26 08:35:27;;;;;;;6.82;3.90;;;;;;;23.66;39.21;94602.53;4943987;28;20165;-62
2022/09/26 08:37:52;;;;;;;6.50;3.92;;;;;;;24.00;39.16;94670.38;4943533;28;20815;-62
2022/09/26 08:40:19;;;;;;;5.43;4.45;;;;;;;23.70;39.01;94614.63;4940855;28;20042;-62
2022/09/26 08:42:58;;;;;;;5.28;3.90;;;;;;;23.45;39.58;94593.44;4906566;28;20045;-63
2022/09/26 08:48:48;;;;;;;6.70;3.75;;;;;;;24.04;39.07;94649.00;4938880;28;20116;-62
2022/09/26 08:51:28;;;;;;;5.07;3.72;;;;;;;24.08;38.75;94663.06;4942162;28;20047;-63
2022/09/26 08:54:03;;;;;;;7.57;4.28;;;;;;;23.92;37.85;94631.34;4943213;28;20268;-65
2022/09/26 08:56:31;;;;;;;6.72;4.30;;;;;;;24.14;37.30;94620.06;4923333;28;20053;-62
2022/09/26 08:58:57;;;;;;;9.32;4.30;;;;;;;24.43;37.35;94641.59;4916112;28;20055;-62
2022/09/26 09:01:27;;;;;;;16.10;5.28;;;;;;;24.71;36.18;94649.25;4939741;28;20199;-62
2022/09/26 09:04:12;;;;;;;9.18;4.70;;;;;;;24.75;36.24;94660.59;4956499;28;20076;-61
2022/09/26 09:06:38;;;;;;;9.43;5.40;;;;;;;24.91;36.17;94655.53;4929841;28;20037;-63
2022/09/26 09:09:04;;;;;;;23.65;8.18;;;;;;;24.82;35.46;94583.50;4942316;28;20136;-61
2022/09/26 09:11:51;;;;;;;30.13;8.63;;;;;;;24.95;36.43;94655.22;4929497;28;20049;-63
2022/09/26 09:14:26;;;;;;;29.40;12.57;;;;;;;25.58;35.50;94647.41;4944920;28;20189;-63
2022/09/26 09:17:01;;;;;;;48.47;19.55;;;;;;;25.57;35.50;94629.50;4945426;28;20119;-62
2022/09/26 09:19:33;;;;;;;30.92;14.60;;;;;;;26.31;33.92;94619.97;4941523;28;21858;-64
2022/09/26 09:22:37;;;;;;;24.52;10.98;;;;;;;25.94;34.79;94625.13;4939765;28;20041;-64
2022/09/26 09:25:08;;;;;;;11.45;6.40;;;;;;;26.12;34.50;94624.19;4946475;28;21870;-68
2022/09/26 09:27:54;;;;;;;20.27;7.65;;;;;;;26.19;34.26;94628.97;4948637;28;20089;-64
2022/09/26 09:30:24;;;;;;;13.80;6.57;;;;;;;25.92;34.22;94633.16;4940996;28;20107;-64
2022/09/26 09:32:56;;;;;;;12.75;6.35;;;;;;;25.80;35.02;94620.28;4943285;28;20046;-64
2022/09/26 09:35:44;;;;;;;14.57;5.65;;;;;;;25.46;34.73;94569.63;4954446;28;20861;-64
2022/09/26 09:38:19;;;;;;;13.80;5.97;;;;;;;25.87;34.17;94628.56;4960600;28;20081;-63
2022/09/26 09:41:06;;;;;;;18.80;8.15;;;;;;;25.10;36.31;94598.78;4940968;28;20050;-63
2022/09/26 09:43:57;;;;;;;12.60;4.82;;;;;;;26.42;33.35;94605.25;4940127;28;20041;-64
2022/09/26 09:46:28;;;;;;;8.73;4.57;;;;;;;26.59;32.78;94598.06;4959810;28;20546;-62
2022/09/26 09:49:20;;;;;;;8.15;4.93;;;;;;;26.76;33.32;94601.78;4959872;28;20039;-63
2022/09/26 09:52:01;;;;;;;8.40;4.32;;;;;;;26.20;34.03;94591.38;4943562;28;20826;-64
2022/09/26 09:54:59;;;;;;;10.73;5.18;;;;;;;26.02;34.65;94615.00;4945059;28;20165;-63
2022/09/26 09:58:14;;;;;;;11.50;4.30;;;;;;;26.39;33.13;94570.72;4947582;28;21328;-61
2022/09/26 10:00:45;;;;;;;9.20;4.07;;;;;;;26.35;32.75;94493.66;4940029;28;20089;-66
2022/09/26 10:03:17;;;;;;;11.77;4.85;;;;;;;25.54;36.07;94571.16;4935594;28;20049;-63
2022/09/26 10:05:47;;;;;;;11.20;5.10;;;;;;;25.84;35.38;94555.00;4945448;28;20148;-63
2022/09/26 10:08:21;;;;;;;10.20;5.18;;;;;;;25.28;36.16;94510.41;4927837;28;20054;-64
2022/09/26 10:11:21;;;;;;;8.85;4.88;;;;;;;25.90;35.81;94575.50;4913013;28;20058;-59
2022/09/26 10:13:47;;;;;;;9.75;4.35;;;;;;;25.97;35.56;94580.28;4944438;28;20043;-63
2022/09/26 10:16:14;;;;;;;8.43;4.10;;;;;;;25.48;36.18;94561.63;4926995;28;20065;-61
2022/09/26 10:18:53;;;;;;;7.43;4.15;;;;;;;25.26;35.92;94540.28;4930458;28;20132;-61
2022/09/26 10:21:19;;;;;;;9.80;4.28;;;;;;;25.84;35.48;94555.75;4946014;28;21847;-61
2022/09/26 10:23:46;;;;;;;7.07;4.07;;;;;;;25.56;35.52;94535.06;4946823;28;20499;-65
2022/09/26 10:26:15;;;;;;;7.90;4.00;;;;;;;26.35;34.65;94586.75;4932018;28;21219;-61
2022/09/26 10:28:44;;;;;;;19.95;4.90;;;;;;;26.88;34.10;94578.25;4918102;28;20503;-61
2022/09/26 10:31:10;;;;;;;11.10;4.18;;;;;;;26.59;34.16;94539.78;4945186;28;20282;-60
2022/09/26 10:33:43;;;;;;;11.32;4.40;;;;;;;26.67;34.28;94567.94;4930955;28;20088;-59
2022/09/26 10:36:11;;;;;;;15.60;3.83;;;;;;;25.40;35.73;94522.56;4927843;28;20058;-59
2022/09/26 10:41:48;;;;;;;9.50;4.15;;;;;;;25.89;35.71;94524.78;4928918;28;21932;-66
2022/09/26 10:44:23;;;;;;;11.60;4.20;;;;;;;25.76;35.30;94482.38;4954166;28;20062;-61
2022/09/26 10:46:50;;;;;;;9.57;4.05;;;;;;;26.07;35.66;94540.22;4961705;28;20052;-66
2022/09/26 10:49:17;;;;;;;8.30;3.92;;;;;;;25.87;36.05;94532.81;4955784;28;20049;-65
2022/09/26 10:51:45;;;;;;;7.85;3.80;;;;;;;26.23;36.05;94525.34;4928007;28;20034;-63
2022/09/26 10:54:15;;;;;;;9.70;3.60;;;;;;;26.03;36.17;94501.50;4926515;28;20149;-59
2022/09/26 10:56:46;;;;;;;6.00;3.70;;;;;;;26.43;35.64;94528.03;4921246;28;20046;-61
2022/09/26 10:59:13;;;;;;;11.80;3.85;;;;;;;25.56;37.21;94497.53;4923325;28;20046;-61
2022/09/26 11:01:47;;;;;;;9.32;3.78;;;;;;;25.64;37.08;94522.19;4927857;28;20049;-61
2022/09/26 11:07:10;;;;;;;7.03;3.20;;;;;;;25.20;37.46;94520.56;4942327;28;20092;-61
2022/09/26 11:09:37;;;;;;;5.82;3.20;;;;;;;25.17;37.18;94521.63;4917838;28;20050;-60
2022/09/26 11:12:28;;;;;;;8.35;3.08;;;;;;;25.15;37.28;94502.28;4901848;28;20053;-59
2022/09/26 11:14:58;;;;;;;5.32;2.85;;;;;;;25.01;37.35;94509.06;4956110;28;20101;-62
2022/09/26 11:17:43;;;;;;;;;;;;;;;25.12;37.23;94508.81;4951985;28;20179;-61
2022/09/26 11:20:31;;;;;;;6.25;2.75;;;;;;;24.88;37.63;94489.97;4950287;28;20067;-66
2022/09/26 11:23:15;;;;;;;4.93;2.95;;;;;;;24.87;37.31;94499.44;4931347;28;20050;-61
2022/09/26 11:25:50;;;;;;;4.10;2.75;;;;;;;25.07;37.17;94506.94;4953260;28;20161;-62
2022/09/26 11:28:25;;;;;;;3.75;2.88;;;;;;;24.63;37.32;94462.75;4958976;28;20090;-69
2022/09/26 11:30:55;;;;;;;3.58;2.40;;;;;;;24.87;37.63;94488.50;4945198;28;20226;-67
2022/09/26 11:33:20;;;;;;;5.43;2.80;;;;;;;24.80;37.86;94487.69;4941481;28;20031;-64
2022/09/26 11:35:58;;;;;;;4.85;2.38;;;;;;;24.76;37.81;94490.03;4940639;28;21366;-67
2022/09/26 11:38:27;;;;;;;6.20;2.58;;;;;;;24.92;37.46;94484.91;4940767;28;20050;-66
2022/09/26 11:41:04;;;;;;;4.63;2.10;;;;;;;24.90;37.17;94462.88;4952188;28;20468;-64
2022/09/26 11:43:48;;;;;;;5.45;2.40;;;;;;;24.93;37.17;94467.28;4940742;28;21183;-67
2022/09/26 11:46:13;;;;;;;4.43;2.30;;;;;;;24.82;37.54;94459.31;4937631;28;20068;-66
2022/09/26 11:49:18;;;;;;;5.07;2.33;;;;;;;24.90;37.50;94457.41;4948069;28;20538;-64
2022/09/26 11:52:02;;;;;;;2.78;2.05;;;;;;;24.74;38.05;94448.84;4929322;28;20046;-64
2022/09/26 11:54:45;;;;;;;3.90;2.20;;;;;;;24.79;37.47;94448.00;4945722;28;20058;-64
2022/09/26 11:57:13;;;;;;;4.60;2.20;;;;;;;24.81;37.67;94456.38;4940863;28;20050;-63
2022/09/26 11:59:54;;;;;;;3.47;2.08;;;;;;;24.84;37.71;94445.88;4941589;28;20051;-68
2022/09/26 12:02:22;;;;;;;5.22;1.90;;;;;;;24.84;37.87;94443.16;4942436;28;20050;-62
2022/09/26 12:05:12;;;;;;;4.30;2.05;;;;;;;24.81;37.79;94435.25;4949382;28;20087;-62
2022/09/26 12:08:04;;;;;;;;;;;;;;;24.81;37.54;94445.47;4941141;28;20039;-69